Nearby METAR Reports

 

EGNM - Leeds And Bradford, United Kingdom
Distance from station: N 11mi, 18km
Updated: 14/12/2018 15:20
Clear
Clear
 Wind from SE
Wind: SE 6 mph , 9 km/h
Temperature: 2°C
Wind Chill: -1°C
Dew Point: -1°C
Humidity: 81%
Barometer: 1022 hPa
Summary: Clear
Visibility: greater than 7 miles , 10 km
2018/12/14 15:20 EGNM 141520Z 13005KT CAVOK 02/M01 Q1022
EGXG - Church Fenton, United Kingdom
Distance from station: ENE 19mi, 31km
Updated: 19/12/2013 08:50
NOT Current
Clear
Clear
 Wind from SW
Wind: SW 16 mph , 26 km/h
Temperature: 4°C
Wind Chill: -1°C
Dew Point: -1°C
Humidity: 70%
Barometer: 996 hPa
Clouds: Clear
Visibility: 6 miles , 10 km
2013/12/19 08:50 EGXG 190850Z AUTO 23014KT 9999 NCD 04/M01 Q0996
 
EGXU - Linton-On-Ouse, United Kingdom
Distance from station: NNE 28mi, 45km
Updated: 14/12/2018 14:50
Few Clouds
Few Clouds
 Wind from SSE
Wind: SSE 8 mph , 13 km/h
Temperature: 4°C
Wind Chill: 1°C
Dew Point: -1°C
Humidity: 70%
Barometer: 1022 hPa
Clouds: Few Clouds
Visibility: 6 miles , 10 km
Cloud details: Few Clouds 610 m
2018/12/14 14:50 EGXU 141450Z 15007KT 9999 FEW020 04/M01 Q1022 BLU NOSIG
EGCN - Doncaster Sheffield, United Kingdom
Distance from station: ESE 30mi, 45km
Updated: 14/12/2018 15:20
Clear
Clear
 Wind from SE
Wind: SE 5 mph , 7 km/h
Temperature: 3°C
Wind Chill: 1°C
Dew Point: 0°C
Humidity: 81%
Barometer: 1024 hPa
Summary: Clear
Visibility: greater than 7 miles , 10 km
2018/12/14 15:20 EGCN 141520Z 14004KT CAVOK 03/00 Q1024
 
EGXD - Dishforth RAF, United Kingdom
Distance from station: NNE 31mi, 49km
Updated: 06/06/2016 10:50
NOT Current
Clear
Clear
 Wind from SSE
Wind: SSE 5 mph , 7 km/h
Temperature: 18°C
Dew Point: 11°C
Humidity: 64%
Barometer: 1023 hPa
Clouds: Clear
Visibility: 6 miles , 10 km
2016/06/06 09:50 EGXD 060950Z AUTO 16004KT 9999 // NCD 18/11 Q1023
EGXZ - Topcliffe RAF, United Kingdom
Distance from station: NNE 36mi, 57km
Updated: 14/12/2018 14:50
Clear
Clear
 Wind from SSE
Wind: SSE 10 mph , 17 km/h
Temperature: 3°C
Wind Chill: -1°C
Dew Point: 0°C
Humidity: 81%
Barometer: 1023 hPa
Summary: Clear
Visibility: greater than 7 miles , 10 km
2018/12/14 14:50 EGXZ 141450Z 15009KT CAVOK 03/M00 Q1023 BLU
 
EGCC - Manchester Intl, United Kingdom
Distance from station: SW 36mi, 58km
Updated: 14/12/2018 15:20
Clear
Clear
 Wind from SE
Wind: SE 5 mph , 7 km/h
Temperature: 2°C
Wind Chill: 0°C
Dew Point: -3°C
Humidity: 70%
Barometer: 1022 hPa
Clouds: Clear
Visibility: 6 miles , 10 km
2018/12/14 15:20 EGCC 141520Z AUTO 14004KT 090V200 9999 NCD 02/M03 Q1022 NOSIG
EGXE - Leeming RAF, United Kingdom
Distance from station: N 40mi, 65km
Updated: 14/12/2018 14:50
Clear
Clear
 Wind from SE
Wind: SE 6 mph , 9 km/h
Temperature: 3°C
Wind Chill: 0°C
Dew Point: 0°C
Humidity: 81%
Barometer: 1022 hPa
Summary: Clear
Visibility: greater than 7 miles , 10 km
2018/12/14 14:50 EGXE 141450Z 14005KT CAVOK 03/M00 Q1022 BLU BECMG 6000 BR WHT